createdAt,value
2022-08-18T00:01:11.823Z,17.97
2022-08-18T00:03:57.393Z,18.30
2022-08-18T00:06:29.593Z,19.57
2022-08-18T00:08:59.510Z,20.53
2022-08-18T00:11:41.621Z,20.20
2022-08-18T00:14:14.575Z,21.07
2022-08-18T00:16:52.241Z,20.43
2022-08-18T00:19:20.443Z,21.63
2022-08-18T00:22:08.431Z,19.87
2022-08-18T00:24:48.623Z,21.43
2022-08-18T00:27:21.701Z,19.57
2022-08-18T00:29:52.769Z,20.43
2022-08-18T00:32:23.789Z,20.87
2022-08-18T00:34:52.289Z,21.20
2022-08-18T00:37:20.559Z,20.53
2022-08-18T00:39:48.593Z,19.87
2022-08-18T00:42:27.814Z,20.33
2022-08-18T00:44:59.461Z,20.40
2022-08-18T00:47:41.301Z,19.43
2022-08-18T00:50:19.218Z,21.87
2022-08-18T00:52:53.844Z,21.13
2022-08-18T00:55:22.960Z,20.53
2022-08-18T00:57:55.397Z,24.37
2022-08-18T01:00:23.749Z,21.30
2022-08-18T01:02:56.920Z,24.80
2022-08-18T01:05:33.810Z,22.40
2022-08-18T01:08:02.195Z,24.87
2022-08-18T01:10:30.331Z,23.07
2022-08-18T01:13:00.183Z,24.87
2022-08-18T01:15:30.401Z,23.93
2022-08-18T01:18:17.621Z,24.47
2022-08-18T01:21:11.987Z,26.13
2022-08-18T01:23:41.698Z,26.90
2022-08-18T01:26:09.488Z,27.70
2022-08-18T01:28:40.640Z,28.43
2022-08-18T01:31:10.731Z,27.00
2022-08-18T01:33:42.309Z,28.17
2022-08-18T01:36:14.540Z,27.93
2022-08-18T01:38:44.308Z,29.37
2022-08-18T01:41:26.356Z,28.90
2022-08-18T01:43:57.260Z,31.67
2022-08-18T01:46:25.634Z,29.77
2022-08-18T01:48:53.736Z,31.07
2022-08-18T01:51:39.342Z,31.97
2022-08-18T01:54:11.837Z,31.43
2022-08-18T01:56:40.704Z,29.73
2022-08-18T01:59:10.377Z,30.53
2022-08-18T02:01:43.345Z,31.90
2022-08-18T02:04:36.772Z,30.97
2022-08-18T02:07:09.440Z,30.30
2022-08-18T02:09:41.236Z,30.60
2022-08-18T02:12:09.818Z,32.40
2022-08-18T02:14:38.189Z,30.93
2022-08-18T02:17:08.892Z,31.80
2022-08-18T02:19:38.904Z,35.10
2022-08-18T02:22:08.233Z,34.27
2022-08-18T02:24:38.121Z,34.97
2022-08-18T02:27:06.989Z,34.60
2022-08-18T02:29:35.808Z,32.10
2022-08-18T02:32:04.490Z,36.77
2022-08-18T02:34:32.497Z,37.13
2022-08-18T02:37:00.716Z,37.97
2022-08-18T02:39:29.840Z,38.90
2022-08-18T02:41:59.218Z,36.27
2022-08-18T02:44:27.342Z,37.40
2022-08-18T02:46:55.995Z,41.53
2022-08-18T02:49:24.073Z,38.43
2022-08-18T02:51:52.436Z,38.60
2022-08-18T02:54:23.103Z,37.70
2022-08-18T02:56:52.496Z,37.10
2022-08-18T02:59:23.158Z,36.87
2022-08-18T03:01:53.706Z,34.67
2022-08-18T03:04:29.203Z,35.73
2022-08-18T03:07:00.512Z,39.30
2022-08-18T03:09:29.225Z,37.47
2022-08-18T03:11:57.475Z,39.60
2022-08-18T03:14:27.141Z,40.47
2022-08-18T03:16:55.544Z,41.03
2022-08-18T03:19:25.406Z,40.67
2022-08-18T03:21:54.940Z,42.13
2022-08-18T03:24:25.248Z,41.37
2022-08-18T03:26:55.652Z,39.23
2022-08-18T03:29:31.331Z,39.70
2022-08-18T03:32:02.845Z,40.67
2022-08-18T03:34:31.564Z,39.30
2022-08-18T03:37:00.732Z,41.87
2022-08-18T03:39:29.637Z,39.23
2022-08-18T03:42:01.567Z,42.90
2022-08-18T03:44:32.218Z,42.30
2022-08-18T03:47:02.945Z,40.33
2022-08-18T03:49:31.726Z,38.73
2022-08-18T03:52:00.948Z,41.00
2022-08-18T03:54:33.363Z,42.33
2022-08-18T03:57:01.921Z,41.90
2022-08-18T03:59:31.748Z,42.23
2022-08-18T04:02:04.426Z,40.20
2022-08-18T04:04:32.645Z,40.50
2022-08-18T04:07:05.485Z,39.93
2022-08-18T04:09:35.560Z,42.97
2022-08-18T04:12:15.211Z,44.47
2022-08-18T04:14:47.794Z,42.00
2022-08-18T04:17:18.384Z,43.27
2022-08-18T04:19:46.932Z,40.93
2022-08-18T04:22:17.469Z,45.63
2022-08-18T04:24:46.780Z,42.57
2022-08-18T04:27:14.960Z,45.70
2022-08-18T04:29:42.933Z,44.57
2022-08-18T04:32:10.886Z,52.40
2022-08-18T04:34:40.362Z,61.93
2022-08-18T04:37:09.524Z,68.33
2022-08-18T04:39:37.806Z,75.80
2022-08-18T04:42:06.086Z,81.37
2022-08-18T04:44:34.466Z,78.90
2022-08-18T04:47:02.982Z,83.00
2022-08-18T04:49:32.104Z,94.10
2022-08-18T04:52:34.067Z,92.47
2022-08-18T04:55:07.649Z,99.33
2022-08-18T04:57:39.069Z,92.43
2022-08-18T05:00:13.554Z,98.87
2022-08-18T05:02:41.610Z,94.73
2022-08-18T05:05:11.060Z,99.30
2022-08-18T05:07:46.612Z,90.37
2022-08-18T05:10:17.444Z,88.80
2022-08-18T05:12:48.726Z,89.33
2022-08-18T05:15:17.699Z,97.17
2022-08-18T05:17:50.353Z,93.30
2022-08-18T05:20:19.853Z,92.47
2022-08-18T05:22:49.181Z,90.47
2022-08-18T05:25:17.412Z,83.33
2022-08-18T05:27:45.493Z,79.63
2022-08-18T05:30:14.923Z,89.90
2022-08-18T05:32:47.953Z,96.20
2022-08-18T05:35:23.007Z,93.60
2022-08-18T05:38:15.597Z,95.07
2022-08-18T05:40:46.020Z,100.60
2022-08-18T05:43:16.041Z,101.73
2022-08-18T05:45:44.437Z,108.53
2022-08-18T05:48:12.475Z,104.43
2022-08-18T05:50:40.507Z,113.10
2022-08-18T05:53:15.576Z,100.43
2022-08-18T05:56:09.833Z,101.87
2022-08-18T05:58:41.430Z,112.23
2022-08-18T06:01:15.788Z,113.57
2022-08-18T06:03:48.859Z,108.03
2022-08-18T06:06:20.447Z,111.43
2022-08-18T06:09:11.396Z,109.80
2022-08-18T06:11:39.481Z,107.27
2022-08-18T06:14:07.595Z,106.00
2022-08-18T06:16:50.364Z,103.47
2022-08-18T06:19:33.339Z,108.40
2022-08-18T06:22:12.329Z,115.23
2022-08-18T06:24:50.024Z,114.40
2022-08-18T06:27:26.908Z,101.67
2022-08-18T06:30:06.990Z,106.90
2022-08-18T06:32:48.793Z,110.30
2022-08-18T06:35:25.529Z,107.50
2022-08-18T06:38:23.519Z,111.77
2022-08-18T06:41:02.911Z,107.97
2022-08-18T06:43:33.439Z,109.33
2022-08-18T06:46:02.322Z,107.97
2022-08-18T06:48:38.077Z,109.37
2022-08-18T06:51:08.968Z,99.07
2022-08-18T06:53:57.201Z,91.53
2022-08-18T06:56:33.177Z,91.30
2022-08-18T06:59:20.900Z,89.07
2022-08-18T07:01:52.908Z,94.43
2022-08-18T07:04:39.545Z,85.17
2022-08-18T07:07:17.246Z,94.87
2022-08-18T07:09:45.557Z,89.97
2022-08-18T07:12:22.703Z,95.00
2022-08-18T07:14:53.408Z,80.83
2022-08-18T07:17:42.290Z,84.30
2022-08-18T07:20:26.035Z,74.30
2022-08-18T07:22:56.756Z,70.47
2022-08-18T07:25:31.935Z,61.10
2022-08-18T07:28:02.670Z,64.67
2022-08-18T07:30:35.974Z,53.40
2022-08-18T07:33:14.000Z,51.87
2022-08-18T07:35:47.562Z,51.73
2022-08-18T07:41:16.733Z,53.90
2022-08-18T07:43:56.559Z,52.37
2022-08-18T07:46:32.499Z,50.37
2022-08-18T07:49:01.529Z,41.83
2022-08-18T07:51:45.808Z,45.77
2022-08-18T07:54:48.394Z,42.90
2022-08-18T07:57:20.946Z,45.17
2022-08-18T07:59:58.969Z,42.80
2022-08-18T08:02:36.238Z,41.03
2022-08-18T08:05:15.976Z,45.60
2022-08-18T08:07:50.931Z,42.70
2022-08-18T08:10:37.509Z,44.47
2022-08-18T08:13:37.076Z,39.43
2022-08-18T08:16:17.602Z,42.43
2022-08-18T08:18:54.294Z,43.13
2022-08-18T08:21:26.619Z,43.20
2022-08-18T08:24:01.036Z,44.47
2022-08-18T08:26:44.405Z,42.30
2022-08-18T08:29:23.233Z,41.20
2022-08-18T08:31:59.179Z,40.70
2022-08-18T08:34:32.322Z,39.93
2022-08-18T08:37:04.228Z,37.23
2022-08-18T08:39:40.760Z,37.37
2022-08-18T08:42:31.816Z,40.37
2022-08-18T08:45:07.693Z,37.23
2022-08-18T08:47:43.710Z,33.53
2022-08-18T08:50:17.497Z,34.67
2022-08-18T08:52:48.587Z,36.40
2022-08-18T08:55:21.390Z,36.83
2022-08-18T08:57:54.609Z,34.07
2022-08-18T09:00:22.857Z,36.33
2022-08-18T09:03:31.594Z,34.80
2022-08-18T09:06:10.682Z,39.07
2022-08-18T09:08:56.149Z,35.27
2022-08-18T09:11:43.713Z,33.70
2022-08-18T09:14:44.211Z,35.20
2022-08-18T09:17:33.866Z,36.77
2022-08-18T09:20:27.073Z,31.63
2022-08-18T09:23:00.991Z,33.43
2022-08-18T09:25:34.979Z,30.33
2022-08-18T09:28:12.609Z,27.70
2022-08-18T09:30:47.592Z,30.93
2022-08-18T09:33:46.781Z,28.57
2022-08-18T09:36:33.946Z,26.03
2022-08-18T09:39:27.314Z,27.77
2022-08-18T09:41:59.275Z,30.83
2022-08-18T09:48:28.076Z,25.50
2022-08-18T09:51:32.122Z,25.87
2022-08-18T09:57:19.195Z,24.13
2022-08-18T10:00:24.323Z,24.10
2022-08-18T10:09:36.552Z,22.43
2022-08-18T10:12:30.043Z,20.67
2022-08-18T10:15:15.571Z,21.50
2022-08-18T10:18:17.820Z,26.00
2022-08-18T10:20:57.106Z,22.00
2022-08-18T10:23:49.502Z,25.50
2022-08-18T10:27:09.683Z,25.63
2022-08-18T10:29:55.157Z,21.00
2022-08-18T10:32:54.215Z,22.03
2022-08-18T10:35:56.401Z,24.30
2022-08-18T10:38:30.973Z,20.73
2022-08-18T10:41:10.043Z,23.67
2022-08-18T10:43:55.838Z,23.50
2022-08-18T10:49:25.264Z,29.53
2022-08-18T10:52:29.960Z,22.20
2022-08-18T10:55:20.885Z,23.00
2022-08-18T10:58:09.767Z,21.07
2022-08-18T11:00:52.644Z,20.37
2022-08-18T11:03:56.033Z,21.53
2022-08-18T11:06:26.161Z,23.73
2022-08-18T11:08:57.857Z,22.87
2022-08-18T11:11:41.995Z,20.47
2022-08-18T11:14:38.687Z,25.73
2022-08-18T11:17:16.001Z,19.40
2022-08-18T11:19:46.729Z,21.33
2022-08-18T11:22:31.815Z,18.83
2022-08-18T11:25:03.255Z,19.67
2022-08-18T11:27:35.918Z,19.83
2022-08-18T11:30:07.146Z,21.13
2022-08-18T11:32:39.370Z,20.73
2022-08-18T11:35:31.747Z,20.27
2022-08-18T11:38:01.891Z,20.20
2022-08-18T11:43:39.141Z,20.53
2022-08-18T11:46:28.155Z,18.83
2022-08-18T11:49:00.488Z,20.73
2022-08-18T11:51:33.073Z,17.23
2022-08-18T11:54:04.885Z,19.77
2022-08-18T11:56:35.963Z,18.90
2022-08-18T11:59:07.892Z,18.07
2022-08-18T12:01:42.483Z,20.47
2022-08-18T12:04:16.974Z,21.03
2022-08-18T12:07:00.444Z,16.47
2022-08-18T12:10:16.293Z,18.43
2022-08-18T12:12:28.289Z,20.40
2022-08-18T12:15:10.353Z,19.13
2022-08-18T12:17:44.569Z,22.93
2022-08-18T12:20:21.139Z,29.70
2022-08-18T12:22:50.602Z,27.87
2022-08-18T12:25:25.243Z,21.00
2022-08-18T12:27:54.239Z,21.63
2022-08-18T12:30:22.181Z,22.43
2022-08-18T12:32:55.911Z,23.03
2022-08-18T12:35:28.896Z,20.37
2022-08-18T12:38:05.147Z,22.60
2022-08-18T12:40:41.859Z,22.63
2022-08-18T12:43:09.792Z,23.87
2022-08-18T12:45:39.022Z,22.07
2022-08-18T12:48:08.176Z,21.67
2022-08-18T12:50:50.237Z,20.60
2022-08-18T12:53:30.708Z,19.97
2022-08-18T12:56:08.555Z,20.83
2022-08-18T12:58:40.596Z,21.07
2022-08-18T13:01:10.850Z,21.77
2022-08-18T13:03:38.844Z,17.83
2022-08-18T13:06:11.535Z,18.97
2022-08-18T13:08:48.129Z,18.67
2022-08-18T13:11:23.850Z,18.00
2022-08-18T13:13:56.245Z,20.90
2022-08-18T13:16:38.787Z,18.87
2022-08-18T13:19:13.970Z,17.50
2022-08-18T13:21:43.019Z,15.60
2022-08-18T13:24:13.000Z,17.33
2022-08-18T13:26:45.952Z,16.67
2022-08-18T13:29:19.093Z,16.30
2022-08-18T13:31:55.279Z,16.77
2022-08-18T13:34:24.297Z,16.50
2022-08-18T13:36:52.421Z,17.30
2022-08-18T13:39:23.347Z,14.43
2022-08-18T13:41:54.440Z,13.53
2022-08-18T13:44:25.700Z,13.60
2022-08-18T13:46:55.451Z,12.90
2022-08-18T13:49:30.049Z,13.37
2022-08-18T13:52:00.976Z,11.97
2022-08-18T13:54:35.911Z,17.50
2022-08-18T13:57:04.871Z,13.00
2022-08-18T13:59:34.665Z,11.67
2022-08-18T14:02:08.641Z,11.03
2022-08-18T14:04:38.607Z,10.33
2022-08-18T14:07:10.952Z,10.10
2022-08-18T14:09:41.042Z,9.47
2022-08-18T14:12:22.956Z,9.50
2022-08-18T14:14:53.643Z,21.93
2022-08-18T14:17:23.018Z,10.67
2022-08-18T14:20:14.762Z,8.37
2022-08-18T14:23:08.002Z,8.50
2022-08-18T14:25:54.895Z,8.63
2022-08-18T14:28:24.933Z,8.27
2022-08-18T14:30:54.777Z,7.90
2022-08-18T14:33:34.377Z,9.40
2022-08-18T14:36:13.137Z,8.37
2022-08-18T14:38:41.705Z,8.53
2022-08-18T14:41:13.089Z,9.10
2022-08-18T14:44:04.490Z,8.23
2022-08-18T14:46:32.643Z,8.40
2022-08-18T14:49:04.005Z,9.20
2022-08-18T14:51:33.438Z,15.83
2022-08-18T14:54:02.005Z,10.77
2022-08-18T14:56:33.252Z,13.77
2022-08-18T14:59:07.611Z,8.17
2022-08-18T15:01:36.906Z,7.50
2022-08-18T15:04:18.284Z,9.17
2022-08-18T15:06:56.702Z,14.47
2022-08-18T15:09:26.700Z,14.73
2022-08-18T15:11:58.387Z,12.43
2022-08-18T15:14:32.931Z,12.83
2022-08-18T15:17:02.115Z,17.27
2022-08-18T15:19:58.970Z,12.43
2022-08-18T15:22:35.728Z,10.27
2022-08-18T15:25:23.342Z,8.60
2022-08-18T15:27:54.085Z,7.00
2022-08-18T15:30:22.576Z,13.53
2022-08-18T15:32:51.361Z,8.40
2022-08-18T15:35:20.739Z,7.97
2022-08-18T15:37:51.087Z,7.93
2022-08-18T15:40:30.751Z,8.40
2022-08-18T15:43:10.076Z,9.50
2022-08-18T15:45:57.801Z,10.57
2022-08-18T15:48:28.043Z,9.20
2022-08-18T15:50:56.373Z,8.50
2022-08-18T15:53:29.629Z,7.90
2022-08-18T15:55:58.394Z,24.33
2022-08-18T15:58:33.460Z,22.43
2022-08-18T16:01:02.506Z,12.13
2022-08-18T16:03:50.016Z,13.90
2022-08-18T16:06:23.527Z,20.23
2022-08-18T16:08:55.911Z,14.83
2022-08-18T16:11:29.217Z,9.77
2022-08-18T16:13:59.996Z,9.60
2022-08-18T16:16:35.617Z,10.30
2022-08-18T16:19:05.914Z,10.53
2022-08-18T16:21:34.286Z,8.63
2022-08-18T16:24:02.232Z,12.03
2022-08-18T16:26:30.175Z,13.80
2022-08-18T16:29:01.724Z,11.40
2022-08-18T16:31:30.159Z,11.73
2022-08-18T16:33:59.087Z,10.87
2022-08-18T16:36:27.146Z,12.77
2022-08-18T16:38:56.106Z,11.07
2022-08-18T16:41:27.288Z,11.20
2022-08-18T16:43:56.262Z,12.57
2022-08-18T16:46:28.109Z,11.37
2022-08-18T16:48:57.934Z,11.70
2022-08-18T16:51:28.425Z,11.63
2022-08-18T16:53:56.964Z,11.20
2022-08-18T16:56:26.854Z,11.40
2022-08-18T16:59:12.563Z,12.97
2022-08-18T17:02:00.272Z,11.40
2022-08-18T17:04:33.368Z,11.70
2022-08-18T17:07:02.945Z,13.07
2022-08-18T17:09:30.890Z,13.70
2022-08-18T17:11:58.868Z,11.47
2022-08-18T17:14:29.300Z,13.63
2022-08-18T17:17:00.240Z,12.17
2022-08-18T17:19:31.144Z,11.80
2022-08-18T17:21:59.116Z,12.97
2022-08-18T17:24:32.105Z,14.87
2022-08-18T17:27:16.610Z,12.37
2022-08-18T17:30:03.042Z,14.07
2022-08-18T17:32:41.561Z,13.40
2022-08-18T17:35:14.053Z,13.87
2022-08-18T17:37:49.138Z,12.87
2022-08-18T17:40:20.994Z,13.10
2022-08-18T17:42:50.493Z,12.33
2022-08-18T17:45:21.825Z,15.80
2022-08-18T17:47:57.730Z,8.87
2022-08-18T17:50:48.548Z,9.53
2022-08-18T17:53:17.578Z,9.23
2022-08-18T17:55:48.338Z,9.17
2022-08-18T17:58:21.779Z,8.37
2022-08-18T18:00:49.718Z,10.53
2022-08-18T18:03:19.242Z,9.67
2022-08-18T18:05:54.145Z,8.97
2022-08-18T18:08:22.170Z,9.63
2022-08-18T18:11:03.963Z,10.43
2022-08-18T18:13:34.367Z,10.67
2022-08-18T18:16:19.700Z,11.83
2022-08-18T18:18:59.852Z,12.83
2022-08-18T18:21:53.481Z,12.97
2022-08-18T18:24:23.870Z,10.27
2022-08-18T18:26:53.138Z,13.37
2022-08-18T18:29:28.224Z,12.23
2022-08-18T18:32:01.809Z,11.30
2022-08-18T18:34:39.370Z,12.37
2022-08-18T18:37:25.485Z,7.93
2022-08-18T18:39:58.633Z,10.70
2022-08-18T18:42:30.275Z,8.50
2022-08-18T18:45:00.287Z,9.37
2022-08-18T18:47:48.794Z,9.37
2022-08-18T18:50:28.674Z,8.17
2022-08-18T18:53:08.404Z,11.27
2022-08-18T18:55:46.741Z,7.53
2022-08-18T18:58:27.332Z,10.37
2022-08-18T19:01:00.093Z,11.27
2022-08-18T19:03:36.456Z,12.20
2022-08-18T19:06:28.479Z,7.50
2022-08-18T19:09:04.867Z,8.20
2022-08-18T19:11:43.599Z,11.87
2022-08-18T19:14:18.019Z,9.00
2022-08-18T19:16:52.303Z,9.70
2022-08-18T19:19:37.921Z,7.60
2022-08-18T19:22:15.032Z,8.77
2022-08-18T19:24:53.464Z,9.03
2022-08-18T19:27:27.837Z,9.47
2022-08-18T19:29:59.909Z,11.03
2022-08-18T19:32:36.444Z,9.90
2022-08-18T19:35:12.315Z,10.97
2022-08-18T19:37:58.134Z,9.37
2022-08-18T19:40:32.415Z,15.97
2022-08-18T19:43:04.743Z,7.23
2022-08-18T19:45:37.643Z,7.57
2022-08-18T19:48:16.329Z,14.83
2022-08-18T19:50:50.833Z,11.17
2022-08-18T19:53:44.183Z,11.87
2022-08-18T19:56:25.511Z,8.30
2022-08-18T19:59:22.774Z,7.13
2022-08-18T20:02:09.216Z,10.03
2022-08-18T20:04:52.652Z,11.10
2022-08-18T20:07:54.802Z,8.43
2022-08-18T20:10:40.366Z,9.20
2022-08-18T20:13:27.480Z,8.90
2022-08-18T20:16:11.048Z,7.47
2022-08-18T20:18:42.065Z,9.00
2022-08-18T20:21:47.723Z,9.67
2022-08-18T20:24:43.905Z,6.80
2022-08-18T20:27:32.934Z,7.93
2022-08-18T20:30:32.700Z,7.60
2022-08-18T20:33:18.123Z,7.97
2022-08-18T20:35:53.402Z,12.70
2022-08-18T20:38:33.764Z,8.27
2022-08-18T20:41:42.403Z,10.20
2022-08-18T20:44:53.091Z,7.17
2022-08-18T20:47:43.357Z,7.10
2022-08-18T20:50:36.248Z,9.50
2022-08-18T20:53:13.533Z,8.17
2022-08-18T20:55:53.144Z,11.63
2022-08-18T20:58:34.627Z,8.57
2022-08-18T21:01:04.583Z,9.07
2022-08-18T21:03:36.976Z,8.83
2022-08-18T21:06:06.357Z,7.33
2022-08-18T21:08:37.478Z,9.17
2022-08-18T21:11:09.245Z,13.20
2022-08-18T21:13:47.575Z,10.53
2022-08-18T21:16:38.656Z,11.03
2022-08-18T21:19:13.868Z,10.10
2022-08-18T21:21:49.732Z,11.90
2022-08-18T21:24:30.833Z,7.90
2022-08-18T21:27:00.374Z,9.57
2022-08-18T21:29:36.492Z,8.93
2022-08-18T21:32:22.202Z,9.33
2022-08-18T21:34:50.247Z,12.00
2022-08-18T21:37:19.590Z,8.60
2022-08-18T21:39:52.865Z,9.70
2022-08-18T21:42:27.474Z,11.33
2022-08-18T21:44:56.659Z,7.63
2022-08-18T21:47:31.818Z,9.90
2022-08-18T21:50:09.852Z,9.00
2022-08-18T21:52:40.970Z,9.20
2022-08-18T21:55:17.928Z,7.27
2022-08-18T21:57:56.981Z,8.93
2022-08-18T22:00:28.387Z,12.63
2022-08-18T22:03:15.829Z,8.20
2022-08-18T22:05:58.824Z,9.27
2022-08-18T22:08:30.521Z,8.27
2022-08-18T22:12:00.384Z,13.17
2022-08-18T22:14:36.094Z,10.57
2022-08-18T22:17:26.900Z,9.00
2022-08-18T22:19:56.358Z,10.60
2022-08-18T22:22:41.861Z,11.13
2022-08-18T22:25:12.983Z,7.57
2022-08-18T22:27:41.078Z,13.33
2022-08-18T22:30:09.666Z,8.07
2022-08-18T22:32:39.300Z,10.43
2022-08-18T22:35:09.663Z,10.43
2022-08-18T22:37:47.505Z,10.30
2022-08-18T22:40:21.721Z,9.47
2022-08-18T22:42:50.385Z,10.33
2022-08-18T22:45:18.815Z,10.23
2022-08-18T22:47:46.780Z,8.17
2022-08-18T22:50:16.464Z,9.90
2022-08-18T22:52:48.282Z,10.97
2022-08-18T22:55:21.746Z,10.93
2022-08-18T22:57:54.762Z,10.47
2022-08-18T23:00:25.700Z,11.93
2022-08-18T23:02:54.038Z,8.63
2022-08-18T23:05:23.680Z,9.33
2022-08-18T23:07:51.854Z,8.47
2022-08-18T23:10:20.175Z,9.77
2022-08-18T23:12:49.336Z,15.67
2022-08-18T23:15:19.160Z,11.80
2022-08-18T23:17:47.086Z,10.87
2022-08-18T23:20:19.454Z,8.00
2022-08-18T23:22:49.283Z,13.50
2022-08-18T23:25:17.339Z,12.17
2022-08-18T23:27:45.265Z,11.40
2022-08-18T23:30:13.631Z,9.93
2022-08-18T23:32:41.535Z,10.40
2022-08-18T23:35:10.360Z,9.57
2022-08-18T23:37:39.479Z,8.27
2022-08-18T23:40:12.824Z,13.23
2022-08-18T23:42:40.892Z,8.53
2022-08-18T23:45:10.145Z,9.13
2022-08-18T23:47:38.193Z,7.87
2022-08-18T23:50:07.626Z,12.47
2022-08-18T23:52:35.555Z,11.60
2022-08-18T23:55:05.635Z,11.20
2022-08-18T23:57:35.966Z,8.73
